Time;durP1;ratioP1;P1;durP2;ratioP2;P2;SDS_P1;SDS_P2;PMS_P1;PMS_P2;Temp;Humidity;BMP_temperature;BMP_pressure;BME280_temperature;BME280_humidity;BME280_pressure;Samples;Min_cycle;Max_cycle;Signal;HPM_P1;HPM_P2
2021/06/04 00:01:20;;;;;;;;;10.00;10.00;;;;;21.78;58.45;101646.00;5074012;28;45553;-92
2021/06/04 00:03:49;;;;;;;;;10.67;8.33;;;;;21.56;59.00;101609.75;5056882;28;48314;-92
2021/06/04 00:06:14;;;;;;;;;9.00;9.00;;;;;21.61;59.00;101615.06;5057043;28;45770;-91
2021/06/04 00:08:41;;;;;;;;;15.33;11.33;;;;;21.48;59.23;101596.50;5056582;28;45529;-92
2021/06/04 00:11:13;;;;;;;;;10.67;10.00;;;;;21.69;59.43;101636.34;5057369;28;45398;-92
2021/06/04 00:13:53;;;;;;;;;11.00;10.67;;;;;21.55;59.34;101628.53;5056534;28;47052;-90
2021/06/04 00:16:30;;;;;;;;;14.00;10.67;;;;;21.60;59.41;101648.94;5058460;28;45790;-93
2021/06/04 00:18:56;;;;;;;;;10.33;10.00;;;;;21.66;59.77;101668.50;5057405;28;45437;-91
2021/06/04 00:21:32;;;;;;;;;14.00;14.00;;;;;21.66;60.03;101674.72;5056897;28;45465;-91
2021/06/04 00:24:02;;;;;;;;;15.67;12.00;;;;;21.64;59.93;101685.44;5059125;28;45807;-90
2021/06/04 00:26:30;;;;;;;;;12.33;12.00;;;;;21.62;60.04;101689.94;5059172;28;45696;-92
2021/06/04 00:28:57;;;;;;;;;16.00;14.67;;;;;21.61;60.15;101693.53;5086165;28;45679;-89
2021/06/04 00:31:22;;;;;;;;;18.00;16.00;;;;;21.43;60.44;101651.84;5075582;28;44800;-93
2021/06/04 00:33:58;;;;;;;;;17.00;16.33;;;;;21.56;60.58;101684.66;5056761;28;47146;-91
2021/06/04 00:36:28;;;;;;;;;21.33;18.33;;;;;21.44;60.42;101669.69;5057912;28;45326;-92
2021/06/04 00:38:55;;;;;;;;;16.00;16.00;;;;;21.31;60.58;101657.34;5056544;28;45192;-91
2021/06/04 00:41:27;;;;;;;;;17.67;17.67;;;;;21.37;61.08;101682.25;5057850;28;45237;-90
2021/06/04 00:43:54;;;;;;;;;18.67;17.67;;;;;21.17;61.14;101659.28;5055677;28;47701;-90
2021/06/04 00:46:20;;;;;;;;;19.00;16.33;;;;;21.20;61.05;101668.19;5056387;28;45350;-90
2021/06/04 00:48:46;;;;;;;;;18.00;18.00;;;;;21.36;61.14;101699.16;5057353;28;45276;-91
2021/06/04 00:51:33;;;;;;;;;20.00;17.67;;;;;21.20;61.13;101670.84;5057523;28;45438;-90
2021/06/04 00:54:00;;;;;;;;;20.00;17.67;;;;;21.33;61.48;101717.94;5055627;28;47582;-90
2021/06/04 00:56:27;;;;;;;;;19.00;19.00;;;;;21.29;61.32;101761.69;5055933;28;45446;-89
2021/06/04 00:58:56;;;;;;;;;21.00;17.33;;;;;21.28;61.64;101781.28;5072482;28;45269;-90
2021/06/04 01:01:26;;;;;;;;;21.67;19.67;;;;;21.15;61.36;101754.69;5057239;28;45422;-90
2021/06/04 01:03:59;;;;;;;;;14.00;14.00;;;;;21.16;61.14;101745.78;5055309;28;48148;-91
2021/06/04 01:06:36;;;;;;;;;16.67;14.00;;;;;21.32;61.22;101760.75;5057028;28;45382;-90
2021/06/04 01:09:27;;;;;;;;;12.00;12.00;;;;;21.15;61.15;101711.91;5075436;28;45252;-92
2021/06/04 01:11:59;;;;;;;;;13.67;13.67;;;;;21.33;61.70;101746.47;5076416;28;45547;-91
2021/06/04 01:14:42;;;;;;;;;19.00;15.00;;;;;21.33;61.92;101750.03;5075847;28;48231;-90
2021/06/04 01:17:19;;;;;;;;;17.33;13.67;;;;;21.19;62.14;101718.13;5060468;28;45257;-91
2021/06/04 01:20:12;;;;;;;;;18.00;17.50;;;;;21.28;62.63;101719.78;5076073;28;45485;-90
2021/06/04 01:23:10;;;;;;;;;14.00;11.33;;;;;21.20;63.14;101697.59;5059802;28;45653;-89
2021/06/04 01:25:57;;;;;;;;;12.00;12.00;;;;;21.26;63.31;101708.22;5088168;28;48299;-89
2021/06/04 01:28:48;;;;;;;;;13.67;13.67;;;;;21.22;63.03;101707.38;5085575;28;45406;-89
2021/06/04 01:31:18;;;;;;;;;15.67;12.33;;;;;21.14;63.29;101699.44;5022850;28;45529;-90
2021/06/04 01:33:49;;;;;;;;;16.00;14.33;;;;;21.10;62.94;101703.06;5021467;28;45570;-90
2021/06/04 01:36:18;;;;;;;;;13.00;12.00;;;;;20.97;64.01;101696.94;5037898;28;46251;-90
2021/06/04 01:38:47;;;;;;;;;11.00;11.00;;;;;21.01;63.99;101711.16;5020950;28;45575;-90
2021/06/04 01:41:16;;;;;;;;;13.33;13.33;;;;;20.92;64.00;101699.66;5020835;28;45581;-90
2021/06/04 01:43:48;;;;;;;;;17.00;16.00;;;;;20.76;64.15;101674.88;5021076;28;45467;-91
2021/06/04 01:46:27;;;;;;;;;22.00;19.00;;;;;20.80;64.11;101684.63;5020461;28;47283;-91
2021/06/04 01:48:58;;;;;;;;;18.00;18.00;;;;;20.73;64.61;101682.06;5037586;28;45576;-90
2021/06/04 01:51:41;;;;;;;;;20.33;18.00;;;;;20.62;64.36;101664.34;5020925;28;45278;-91
2021/06/04 01:54:14;;;;;;;;;20.00;16.33;;;;;20.73;64.26;101690.06;5020848;28;45320;-91
2021/06/04 01:56:51;;;;;;;;;21.67;20.00;;;;;20.64;64.82;101677.69;5020747;28;47024;-91
2021/06/04 01:59:23;;;;;;;;;25.33;22.00;;;;;20.56;65.28;101667.09;5037698;28;45456;-91
2021/06/04 02:01:51;;;;;;;;;20.00;18.67;;;;;20.54;64.47;101660.88;5022573;28;45475;-91
2021/06/04 02:04:27;;;;;;;;;22.00;20.33;;;;;20.52;65.48;101654.66;5030854;28;45416;-90
2021/06/04 02:06:56;;;;;;;;;23.33;20.00;;;;;20.52;65.16;101654.66;5022168;28;47197;-91
2021/06/04 02:09:45;;;;;;;;;22.00;21.33;;;;;20.38;65.48;101630.72;5057512;28;45489;-90
2021/06/04 02:12:13;;;;;;;;;20.33;19.67;;;;;20.33;65.67;101636.09;5059340;28;45396;-91
2021/06/04 02:14:53;;;;;;;;;16.67;15.67;;;;;20.40;65.85;101664.53;5075814;28;45519;-91
2021/06/04 02:17:33;;;;;;;;;23.33;20.00;;;;;20.44;65.96;101678.75;5057972;28;48540;-92
2021/06/04 02:20:22;;;;;;;;;23.00;20.67;;;;;20.38;65.45;101681.47;5073962;28;45299;-91
2021/06/04 02:23:02;;;;;;;;;23.67;21.00;;;;;20.29;65.64;101674.41;5075352;28;45450;-92
2021/06/04 02:25:59;;;;;;;;;21.00;19.33;;;;;20.31;65.70;101691.31;5074870;28;45679;-93
2021/06/04 02:28:30;;;;;;;;;24.00;23.33;;;;;20.23;66.56;101704.72;5074985;28;47128;-91
2021/06/04 02:31:09;;;;;;;;;26.00;22.67;;;;;20.18;66.43;101739.44;5075185;28;45378;-92
2021/06/04 02:33:44;;;;;;;;;25.67;22.67;;;;;20.15;65.90;101771.53;5075601;28;45714;-92
2021/06/04 02:36:44;;;;;;;;;24.00;21.33;;;;;20.16;66.16;101794.63;5058561;28;45219;-91
2021/06/04 02:39:26;;;;;;;;;28.67;21.33;;;;;20.16;66.20;101777.75;5058560;28;48090;-91
2021/06/04 02:42:08;;;;;;;;;29.33;25.67;;;;;20.09;65.91;101719.06;5058476;28;45515;-91
2021/06/04 02:44:43;;;;;;;;;27.67;24.33;;;;;20.14;66.90;101708.34;5058366;28;45183;-91
2021/06/04 02:47:16;;;;;;;;;24.67;22.67;;;;;19.93;67.05;101686.22;5058987;28;45189;-92
2021/06/04 02:49:42;;;;;;;;;19.33;19.33;;;;;20.08;67.78;101705.69;5060409;28;47155;-92
2021/06/04 02:52:31;;;;;;;;;25.67;20.67;;;;;20.07;67.76;101711.94;5059954;28;45249;-91
2021/06/04 02:55:00;;;;;;;;;23.00;22.00;;;;;20.12;68.10;101745.72;5023535;28;45741;-90
2021/06/04 02:57:30;;;;;;;;;26.00;22.33;;;;;20.10;68.23;101776.88;5023051;28;45297;-91
2021/06/04 02:59:55;;;;;;;;;25.67;20.67;;;;;19.97;68.91;101786.69;5026415;28;47322;-93
2021/06/04 03:02:31;;;;;;;;;20.00;17.00;;;;;20.08;68.58;101785.75;5037922;28;45361;-90
2021/06/04 03:05:04;;;;;;;;;18.33;18.00;;;;;19.86;69.14;101712.03;5042219;28;45642;-90
2021/06/04 03:07:35;;;;;;;;;29.67;21.00;;;;;19.90;69.26;101703.13;5043952;28;45820;-91
2021/06/04 03:10:11;;;;;;;;;20.67;18.00;;;;;20.01;69.60;101708.41;5046646;28;47290;-92
2021/06/04 03:13:13;;;;;;;;;;;;;;;;;;;;;
2021/06/04 03:15:58;;;;;;;;;16.33;16.33;;;;;19.93;78.90;101675.53;5062812;28;68354;-92
2021/06/04 03:18:51;;;;;;;;;26.00;21.33;;;;;19.76;77.89;101639.19;5035826;28;45447;-91
2021/06/04 03:21:28;;;;;;;;;17.33;17.00;;;;;19.80;77.08;101624.03;4981498;28;46804;-90
2021/06/04 03:24:09;;;;;;;;;;;;;;;;;;;;;
2021/06/04 03:26:46;;;;;;;;;20.00;17.00;;;;;19.68;71.70;101595.69;4999422;28;67832;-93
2021/06/04 03:29:19;;;;;;;;;19.67;17.00;;;;;19.58;71.53;101569.97;4999535;28;44868;-90
2021/06/04 03:31:49;;;;;;;;;18.00;15.00;;;;;19.73;71.39;101585.88;5011701;28;47211;-92
2021/06/04 03:34:24;;;;;;;;;19.33;16.00;;;;;19.64;71.20;101567.25;5023214;28;44794;-91
2021/06/04 03:36:51;;;;;;;;;18.67;15.67;;;;;19.69;71.17;101569.91;5021948;28;45426;-92
2021/06/04 03:39:41;;;;;;;;;;;;;;;;;;;;;
2021/06/04 03:42:16;;;;;;;;;12.00;11.67;;;;;19.75;71.44;101601.88;5024624;28;73372;-91
2021/06/04 03:48:41;;;;;;;;;14.67;11.33;;;;;19.60;71.02;101578.84;5037458;28;45436;-94
2021/06/04 03:51:52;;;;;;;;;;;;;;;;;;;;;
2021/06/04 03:54:30;;;;;;;;;14.00;12.00;;;;;19.67;70.89;101583.25;4920377;29;74056;-91
2021/06/04 03:57:10;;;;;;;;;23.00;14.67;;;;;19.67;71.21;101585.91;4897053;29;45594;-92
2021/06/04 03:59:49;;;;;;;;;;;;;;;;;;;;;
2021/06/04 04:02:39;;;;;;;;;16.67;15.33;;;;;19.72;70.71;101592.09;4938825;28;63267;-92
2021/06/04 04:05:11;;;;;;;;;21.00;20.33;;;;;19.72;71.32;101584.09;4927233;28;47389;-91
2021/06/04 04:07:42;;;;;;;;;25.00;20.33;;;;;19.69;71.71;101572.56;4920422;28;45232;-92
2021/06/04 04:10:12;;;;;;;;;21.33;20.00;;;;;19.59;71.54;101553.06;4904590;28;45273;-91
2021/06/04 04:12:55;;;;;;;;;27.00;26.33;;;;;19.67;71.64;101581.44;4919159;28;45585;-93
2021/06/04 04:15:25;;;;;;;;;24.67;22.67;;;;;19.64;71.41;101575.25;4918230;28;46783;-89
2021/06/04 04:18:06;;;;;;;;;;;;;;;;;;;;;
2021/06/04 04:20:42;;;;;;;;;24.67;24.00;;;;;19.66;71.13;101589.47;4930719;28;67215;-93
2021/06/04 04:23:26;;;;;;;;;;;;;;;;;;;;;
2021/06/04 04:26:21;;;;;;;;;26.33;24.33;;;;;19.76;71.02;101607.19;5057783;28;74256;-92
2021/06/04 04:29:10;;;;;;;;;32.75;29.75;;;;;19.73;71.62;101587.66;5058229;28;45602;-94
2021/06/04 04:31:59;;;;;;;;;;;;;;;;;;;;;
2021/06/04 04:34:38;;;;;;;;;28.75;28.25;;;;;19.60;71.71;101554.84;5056756;28;63005;-92
2021/06/04 04:37:19;;;;;;;;;30.25;25.50;;;;;19.67;71.55;101575.25;5056559;28;46732;-91
2021/06/04 04:40:13;;;;;;;;;24.00;24.00;;;;;19.62;71.62;101561.94;5073277;28;45406;-91
2021/06/04 04:42:44;;;;;;;;;30.00;29.00;;;;;19.62;71.66;101569.94;5057341;28;45443;-93
2021/06/04 04:45:37;;;;;;;;;29.00;27.00;;;;;19.69;72.15;101570.78;5060110;28;45422;-91
2021/06/04 04:48:09;;;;;;;;;26.67;25.33;;;;;19.64;71.30;101540.59;5059995;28;48286;-91
2021/06/04 04:50:54;;;;;;;;;;;;;;;;;;;;;
2021/06/04 04:53:27;;;;;;;;;24.67;21.33;;;;;19.73;71.05;101545.88;5060439;28;67382;-93
2021/06/04 04:55:55;;;;;;;;;23.67;21.00;;;;;19.76;70.40;101555.59;5060520;28;45470;-91
2021/06/04 04:58:24;;;;;;;;;19.67;17.67;;;;;19.74;70.84;101552.94;5059892;28;47998;-91
2021/06/04 05:00:57;;;;;;;;;20.00;17.00;;;;;19.78;70.39;101554.69;5059718;28;45383;-91
2021/06/04 05:03:25;;;;;;;;;17.67;17.00;;;;;19.69;70.17;101546.78;5059933;28;45251;-92
2021/06/04 05:06:00;;;;;;;;;15.00;13.67;;;;;19.80;70.37;101565.34;5060468;28;45328;-90
2021/06/04 05:08:28;;;;;;;;;18.67;17.67;;;;;19.62;70.48;101575.28;5059600;28;47227;-92
2021/06/04 05:11:05;;;;;;;;;19.33;15.33;;;;;19.61;69.95;101669.50;5059688;28;45346;-92
2021/06/04 05:13:33;;;;;;;;;20.67;18.67;;;;;19.58;69.97;101711.31;5076604;28;45340;-90
2021/06/04 05:16:09;;;;;;;;;;;;;;;;;;;;;
2021/06/04 05:18:39;;;;;;;;;23.67;19.33;;;;;19.42;70.10;101690.94;5065328;28;74525;-91
2021/06/04 05:24:03;;;;;;;;;16.00;15.67;;;;;19.50;71.39;101783.34;5058984;28;45436;-94
2021/06/04 05:26:53;;;;;;;;;15.00;12.67;;;;;19.49;72.37;101749.56;5043054;28;45415;-90
2021/06/04 05:29:19;;;;;;;;;11.33;9.33;;;;;19.38;72.01;101747.81;5038433;28;45435;-89
2021/06/04 05:31:45;;;;;;;;;7.67;5.67;;;;;19.33;72.55;101742.50;5020517;28;46196;-91
2021/06/04 05:34:11;;;;;;;;;4.33;4.33;;;;;19.33;71.89;101755.84;5026642;28;45448;-89
2021/06/04 05:36:38;;;;;;;;;6.00;4.50;;;;;19.22;72.52;101747.00;5057978;28;45431;-89
2021/06/04 05:39:13;;;;;;;;;8.33;4.00;;;;;19.15;71.80;101729.22;5065762;28;45542;-92
2021/06/04 05:41:44;;;;;;;;;10.00;3.33;;;;;19.21;72.13;101734.53;5071471;28;44830;-91
2021/06/04 05:44:14;;;;;;;;;3.00;3.00;;;;;19.16;71.46;101747.00;5072129;28;45384;-92
2021/06/04 05:46:43;;;;;;;;;3.00;3.00;;;;;19.09;71.84;101725.69;5073297;28;44698;-90
2021/06/04 05:49:09;;;;;;;;;4.00;3.00;;;;;19.03;71.43;101725.69;5068129;28;45418;-92
2021/06/04 05:51:34;;;;;;;;;5.00;3.67;;;;;19.02;71.83;101723.00;5061931;28;45347;-92
2021/06/04 05:54:00;;;;;;;;;3.33;3.00;;;;;18.94;71.55;101731.03;5040892;28;45490;-95
2021/06/04 05:56:27;;;;;;;;;5.67;2.00;;;;;18.86;71.40;101718.63;5057945;28;45316;-92
2021/06/04 05:58:54;;;;;;;;;4.00;3.00;;;;;18.84;71.72;101715.06;5058011;28;45604;-92
2021/06/04 06:01:25;;;;;;;;;4.67;4.00;;;;;18.95;72.41;101720.34;5050531;28;45293;-90
2021/06/04 06:03:51;;;;;;;;;4.00;4.00;;;;;18.86;72.10;101697.31;5060239;28;45468;-91
2021/06/04 06:06:16;;;;;;;;;3.33;3.33;;;;;18.81;71.95;101690.19;5058692;28;45452;-90
2021/06/04 06:08:42;;;;;;;;;5.00;3.67;;;;;18.93;72.03;101702.63;5060052;28;45257;-93
2021/06/04 06:11:10;;;;;;;;;2.67;2.67;;;;;18.77;72.10;101678.66;5060235;28;45243;-91
2021/06/04 06:13:36;;;;;;;;;4.33;4.00;;;;;18.78;72.23;101679.56;5059630;28;45385;-90
2021/06/04 06:16:03;;;;;;;;;2.00;2.00;;;;;18.78;72.29;101680.44;5059533;28;45433;-92
2021/06/04 06:18:28;;;;;;;;;5.33;4.33;;;;;18.82;72.60;101690.22;5059006;28;46243;-91
2021/06/04 06:20:54;;;;;;;;;6.00;4.00;;;;;18.72;72.58;101677.78;5059587;28;45348;-91
2021/06/04 06:23:25;;;;;;;;;4.00;3.33;;;;;18.74;72.99;101690.19;5060004;28;45401;-91
2021/06/04 06:25:55;;;;;;;;;4.67;4.67;;;;;18.84;72.74;101701.75;5059409;28;45215;-89
2021/06/04 06:28:26;;;;;;;;;7.67;6.00;;;;;18.81;72.81;101693.75;5059127;28;46144;-89
2021/06/04 06:30:52;;;;;;;;;6.67;4.00;;;;;18.82;73.18;101684.88;5061236;28;45429;-92
2021/06/04 06:33:17;;;;;;;;;4.33;4.00;;;;;18.67;73.60;101658.25;5061103;28;45390;-92
2021/06/04 06:36:12;;;;;;;;;5.33;3.33;;;;;18.84;73.31;101683.09;5063758;28;45344;-95
2021/06/04 06:38:38;;;;;;;;;4.00;4.00;;;;;18.90;73.43;101682.19;5067837;28;45288;-90
2021/06/04 06:41:10;;;;;;;;;7.67;4.00;;;;;18.81;73.55;101667.13;5081823;28;45326;-89
2021/06/04 06:43:37;;;;;;;;;7.00;4.00;;;;;18.93;73.39;101692.81;5074814;28;44689;-89
2021/06/04 06:46:05;;;;;;;;;4.00;4.00;;;;;18.91;73.91;101681.28;5066123;28;45388;-91
2021/06/04 06:48:31;;;;;;;;;5.33;4.67;;;;;18.91;73.13;101677.75;5081658;28;48213;-90
2021/06/04 06:50:56;;;;;;;;;5.00;4.00;;;;;19.02;73.20;101697.25;5061926;28;45451;-90
2021/06/04 06:53:24;;;;;;;;;6.00;4.00;;;;;19.05;73.18;101702.59;5067116;28;45236;-88
2021/06/04 06:55:52;;;;;;;;;4.67;4.00;;;;;19.06;72.98;101698.13;5069602;28;45239;-89
2021/06/04 06:58:19;;;;;;;;;6.00;4.67;;;;;18.99;73.06;101691.94;5066412;28;46031;-89
2021/06/04 07:00:48;;;;;;;;;4.67;3.67;;;;;19.10;73.32;101707.88;5062270;28;45369;-88
2021/06/04 07:03:23;;;;;;;;;4.33;4.33;;;;;19.04;72.35;101699.91;5064368;28;45409;-89
2021/06/04 07:05:50;;;;;;;;;4.00;4.00;;;;;19.02;72.50;101702.59;5076352;28;45589;-89
2021/06/04 07:08:16;;;;;;;;;3.67;3.67;;;;;19.06;72.29;101704.34;5060192;28;45354;-91
2021/06/04 07:10:41;;;;;;;;;3.00;2.67;;;;;19.18;71.78;101718.56;5060219;28;45461;-90
2021/06/04 07:13:11;;;;;;;;;4.00;3.33;;;;;19.12;72.03;101705.25;5059511;28;45453;-91
2021/06/04 07:15:37;;;;;;;;;10.00;10.00;;;;;19.27;72.71;101721.19;5059393;28;45729;-89
2021/06/04 07:18:03;;;;;;;;;6.00;5.00;;;;;19.19;73.20;101686.59;5058486;28;45374;-89
2021/06/04 07:20:37;;;;;;;;;7.00;6.33;;;;;19.36;73.03;101690.97;5059215;28;45588;-91
2021/06/04 07:23:05;;;;;;;;;6.33;6.00;;;;;19.49;73.40;101705.13;5058471;28;45316;-89
2021/06/04 07:25:33;;;;;;;;;9.00;5.67;;;;;19.58;72.61;101705.97;5058487;28;45326;-90
2021/06/04 07:27:59;;;;;;;;;6.00;6.00;;;;;19.62;73.66;101697.06;5058376;28;46147;-90
2021/06/04 07:30:35;;;;;;;;;7.00;7.00;;;;;19.67;73.63;101696.16;5058966;28;45450;-91
2021/06/04 07:33:06;;;;;;;;;5.67;5.67;;;;;19.76;73.28;101699.66;5058313;28;45778;-90
2021/06/04 07:35:33;;;;;;;;;5.00;5.00;;;;;19.86;71.49;101695.16;5058513;28;45447;-89
2021/06/04 07:37:59;;;;;;;;;7.67;5.67;;;;;19.92;72.79;101684.47;5057620;28;46540;-90
2021/06/04 07:40:29;;;;;;;;;7.00;6.33;;;;;19.98;72.71;101694.19;5057673;28;45449;-90
2021/06/04 07:42:56;;;;;;;;;7.33;7.33;;;;;19.95;72.91;101686.19;5056211;28;45434;-90
2021/06/04 07:45:24;;;;;;;;;8.00;8.00;;;;;20.09;72.81;101712.84;5058081;28;45460;-89
2021/06/04 07:47:49;;;;;;;;;5.67;5.00;;;;;19.94;72.53;101682.66;5056583;28;48150;-90
2021/06/04 07:50:15;;;;;;;;;11.00;7.00;;;;;20.09;72.41;101703.06;5073141;28;45842;-88
2021/06/04 07:52:40;;;;;;;;;10.33;5.33;;;;;20.05;72.58;101690.56;5073494;28;45449;-89
2021/06/04 07:55:10;;;;;;;;;6.67;5.00;;;;;20.10;72.62;101693.25;5074089;28;45405;-91
2021/06/04 07:57:36;;;;;;;;;7.00;5.00;;;;;20.13;72.79;101682.56;5056462;28;48085;-91
2021/06/04 08:00:05;;;;;;;;;7.33;7.00;;;;;20.22;73.09;101701.16;5057955;28;45192;-90
2021/06/04 08:02:32;;;;;;;;;8.33;8.33;;;;;20.20;73.18;101684.28;5058181;28;45268;-90
2021/06/04 08:04:57;;;;;;;;;6.00;6.00;;;;;20.12;72.81;101670.09;5074170;28;45423;-90
2021/06/04 08:07:22;;;;;;;;;6.00;5.67;;;;;20.19;72.44;101669.16;5073581;28;47286;-92
2021/06/04 08:09:48;;;;;;;;;6.00;4.67;;;;;20.29;71.46;101661.06;5073647;28;45273;-91
2021/06/04 08:12:30;;;;;;;;;4.00;4.00;;;;;20.33;72.05;101661.03;5058450;28;45612;-91
2021/06/04 08:14:58;;;;;;;;;7.00;4.00;;;;;20.47;71.83;101662.72;5056922;28;45401;-90
2021/06/04 08:17:24;;;;;;;;;4.00;4.00;;;;;20.62;72.45;101663.47;5057742;28;46212;-89
2021/06/04 08:19:50;;;;;;;;;4.00;4.00;;;;;20.98;72.38;101687.16;5061618;28;45588;-90
2021/06/04 08:22:15;;;;;;;;;3.00;3.00;;;;;21.22;72.19;101682.41;5061551;28;45413;-92
2021/06/04 08:24:41;;;;;;;;;3.67;2.00;;;;;21.28;70.03;101674.31;5061638;28;45354;-91
2021/06/04 08:27:07;;;;;;;;;5.00;5.00;;;;;21.47;71.43;101680.31;5060739;28;46444;-91
2021/06/04 08:29:33;;;;;;;;;4.33;3.00;;;;;21.48;70.05;101670.50;5066132;28;45499;-92
2021/06/04 08:32:02;;;;;;;;;6.00;3.67;;;;;21.58;69.89;101687.31;5073140;28;45420;-90
2021/06/04 08:34:27;;;;;;;;;5.00;3.00;;;;;21.52;69.44;101678.47;5075151;28;45281;-91
2021/06/04 08:36:54;;;;;;;;;5.67;4.00;;;;;21.54;68.42;101674.88;5098969;28;47393;-89
2021/06/04 08:39:27;;;;;;;;;2.00;2.00;;;;;21.66;68.71;101679.19;5104284;28;45039;-90
2021/06/04 08:42:28;;;;;;;;;2.33;2.33;;;;;22.12;69.59;101692.81;5086579;28;44708;-88
2021/06/04 08:45:18;;;;;;;;;5.00;4.00;;;;;22.46;69.38;101696.72;5079582;28;45413;-88
2021/06/04 08:47:51;;;;;;;;;9.67;4.67;;;;;22.53;67.54;101683.19;5065078;28;45626;-89
2021/06/04 08:50:36;;;;;;;;;2.00;2.00;;;;;22.53;65.48;101688.56;5064689;28;45309;-91
2021/06/04 08:53:07;;;;;;;;;5.00;4.67;;;;;22.42;67.62;101658.41;5063495;28;45432;-90
2021/06/04 08:55:45;;;;;;;;;4.00;4.00;;;;;22.51;67.34;101685.03;5078537;28;45336;-91
2021/06/04 08:58:19;;;;;;;;;6.00;4.00;;;;;22.46;67.22;101697.63;5078605;28;47771;-89
2021/06/04 09:00:54;;;;;;;;;4.33;4.33;;;;;22.52;67.12;101680.56;5078300;28;45799;-89
2021/06/04 09:03:37;;;;;;;;;5.00;5.00;;;;;22.65;64.96;101690.13;5061660;28;45425;-92
2021/06/04 09:06:10;;;;;;;;;8.00;7.00;;;;;22.57;65.38;101684.00;5061215;28;45449;-90
2021/06/04 09:08:37;;;;;;;;;6.00;5.00;;;;;22.59;66.72;101687.56;5060547;28;45437;-89
2021/06/04 09:11:08;;;;;;;;;8.00;6.33;;;;;22.67;67.36;101704.41;5060795;28;45426;-92
2021/06/04 09:13:36;;;;;;;;;5.67;5.67;;;;;22.62;67.08;101697.34;5060626;28;45287;-90
2021/06/04 09:16:29;;;;;;;;;6.00;5.33;;;;;22.66;67.62;101694.63;5060669;28;45281;-90
2021/06/04 09:19:02;;;;;;;;;10.00;7.00;;;;;22.72;66.77;101688.25;5059758;28;45637;-89
2021/06/04 09:21:33;;;;;;;;;11.33;10.00;;;;;22.93;66.03;101686.06;5059687;28;45335;-89
2021/06/04 09:24:02;;;;;;;;;14.00;14.00;;;;;23.22;67.16;101703.41;5060299;28;45413;-91
2021/06/04 09:26:28;;;;;;;;;9.00;6.67;;;;;23.65;66.33;101703.41;5058394;28;45546;-90
2021/06/04 09:29:06;;;;;;;;;5.33;5.00;;;;;23.82;64.00;101713.75;5059680;28;46132;-88
2021/06/04 09:31:45;;;;;;;;;6.00;6.00;;;;;23.85;63.84;101718.19;5060654;28;45672;-90
2021/06/04 09:34:25;;;;;;;;;7.00;6.00;;;;;23.90;64.26;101704.66;5079012;28;45470;-90
2021/06/04 09:36:54;;;;;;;;;7.00;6.67;;;;;24.52;64.72;101718.41;5062296;28;45607;-86
2021/06/04 09:39:31;;;;;;;;;5.00;5.00;;;;;24.94;63.09;101721.78;5059159;28;47389;-89
2021/06/04 09:42:22;;;;;;;;;4.33;4.33;;;;;25.30;62.16;101712.72;5062075;28;45341;-89
2021/06/04 09:45:10;;;;;;;;;5.67;4.67;;;;;26.27;60.47;101719.69;5058295;28;45384;-87
2021/06/04 09:47:44;;;;;;;;;3.00;3.00;;;;;26.98;58.87;101729.84;5056526;28;45498;-88
2021/06/04 09:50:22;;;;;;;;;5.00;5.00;;;;;26.91;58.04;101710.28;5059090;28;45601;-88
2021/06/04 09:53:03;;;;;;;;;4.00;4.00;;;;;26.58;58.29;101715.97;5059061;28;45327;-87
2021/06/04 09:55:37;;;;;;;;;3.00;3.00;;;;;26.44;58.86;101706.53;5057712;28;45372;-89
2021/06/04 09:58:09;;;;;;;;;2.00;2.00;;;;;26.59;58.65;101726.69;5059005;28;45481;-86
2021/06/04 10:00:34;;;;;;;;;3.00;3.00;;;;;26.52;58.31;101724.25;5058691;28;45267;-88
2021/06/04 10:03:21;;;;;;;;;4.00;3.00;;;;;26.24;58.41;101729.63;5058908;28;45226;-87
2021/06/04 10:05:50;;;;;;;;;7.33;4.00;;;;;25.86;58.57;101729.94;5058894;28;45328;-87
2021/06/04 10:08:26;;;;;;;;;4.67;3.00;;;;;25.43;57.75;101722.22;5058905;28;45245;-88
2021/06/04 10:11:11;;;;;;;;;3.33;3.33;;;;;25.26;58.44;101730.78;5058647;28;46235;-87
2021/06/04 10:13:46;;;;;;;;;2.00;2.00;;;;;25.19;58.46;101713.06;5058365;28;45523;-89
2021/06/04 10:16:28;;;;;;;;;3.00;3.00;;;;;25.25;58.25;101728.13;5057859;28;45453;-89
2021/06/04 10:18:54;;;;;;;;;3.00;3.00;;;;;25.01;58.44;101717.16;5059158;28;45442;-90
2021/06/04 10:21:31;;;;;;;;;3.00;3.00;;;;;24.84;59.02;101715.78;5058915;28;45426;-89
2021/06/04 10:23:59;;;;;;;;;4.00;3.00;;;;;24.77;59.14;101725.81;5059061;28;45494;-90
2021/06/04 10:26:35;;;;;;;;;5.00;3.00;;;;;24.64;59.08;101728.81;5059137;28;45295;-90
2021/06/04 10:29:03;;;;;;;;;3.00;3.00;;;;;24.75;60.21;101733.03;5059186;28;45220;-89
2021/06/04 10:31:42;;;;;;;;;3.33;3.33;;;;;24.61;59.31;101731.59;5059027;28;45520;-89
2021/06/04 10:34:46;;;;;;;;;3.33;3.00;;;;;24.41;60.26;101726.72;5058879;28;45269;-88
2021/06/04 10:37:20;;;;;;;;;2.33;2.33;;;;;24.23;60.80;101730.75;5059574;28;45465;-87
2021/06/04 10:40:01;;;;;;;;;6.67;4.00;;;;;24.00;60.16;101727.69;5057490;28;45459;-89
2021/06/04 10:42:51;;;;;;;;;2.33;2.00;;;;;23.92;60.28;101730.53;5057812;28;49235;-89
2021/06/04 10:45:23;;;;;;;;;2.33;2.33;;;;;23.79;60.55;101750.53;5074129;28;45414;-86
2021/06/04 10:47:52;;;;;;;;;3.67;3.67;;;;;23.65;59.42;101743.66;5058786;28;45286;-87
2021/06/04 10:50:39;;;;;;;;;4.00;2.33;;;;;23.57;60.92;101737.56;5064345;28;45407;-89
2021/06/04 10:53:18;;;;;;;;;4.33;3.00;;;;;23.48;60.57;101747.59;5063164;28;46284;-89
2021/06/04 10:56:09;;;;;;;;;2.67;2.67;;;;;23.44;61.16;101742.28;5077877;28;45536;-88
2021/06/04 10:59:15;;;;;;;;;4.00;3.33;;;;;23.44;61.08;101744.97;5060124;28;45206;-86
2021/06/04 11:01:52;;;;;;;;;4.00;1.67;;;;;23.33;61.03;101739.84;5039404;28;45556;-87
2021/06/04 11:04:59;;;;;;;;;3.33;3.33;;;;;23.33;62.07;101747.91;5037492;28;46395;-87
2021/06/04 11:07:36;;;;;;;;;3.33;3.00;;;;;23.25;61.86;101750.72;4977249;28;45336;-88
2021/06/04 11:10:22;;;;;;;;;4.00;4.00;;;;;23.16;61.00;101745.53;4976577;28;45424;-87
2021/06/04 11:13:01;;;;;;;;;6.00;3.00;;;;;23.01;61.89;101745.78;4976883;28;45298;-87
2021/06/04 11:15:57;;;;;;;;;2.67;2.67;;;;;22.98;61.62;101751.22;4975923;28;45469;-87
2021/06/04 11:18:38;;;;;;;;;2.33;2.33;;;;;22.88;61.58;101746.94;4976070;28;45511;-86
2021/06/04 11:21:15;;;;;;;;;2.33;2.00;;;;;22.86;62.10;101746.97;4975976;28;45305;-88
2021/06/04 11:23:56;;;;;;;;;6.33;5.33;;;;;22.87;63.04;101746.06;4976220;28;45534;-87
2021/06/04 11:26:43;;;;;;;;;6.33;6.33;;;;;22.95;63.12;101743.22;4975556;28;46255;-87
2021/06/04 11:29:16;;;;;;;;;5.00;5.00;;;;;23.01;64.03;101735.06;4959253;28;45349;-87
2021/06/04 11:31:52;;;;;;;;;4.67;4.67;;;;;23.14;62.65;101745.56;4976019;28;45609;-87
2021/06/04 11:34:32;;;;;;;;;5.33;5.33;;;;;23.17;63.10;101742.81;4975890;28;45884;-88
2021/06/04 11:37:00;;;;;;;;;4.67;4.00;;;;;23.12;61.91;101723.25;4975671;28;46358;-87
2021/06/04 11:39:33;;;;;;;;;6.33;5.00;;;;;23.23;62.02;101733.75;5011668;28;45823;-87
2021/06/04 11:42:05;;;;;;;;;5.33;3.00;;;;;23.23;61.55;101742.69;5014829;28;45391;-87
2021/06/04 11:44:41;;;;;;;;;4.00;4.00;;;;;23.25;61.66;101732.81;5037341;28;45358;-87
2021/06/04 11:47:23;;;;;;;;;4.00;4.00;;;;;23.21;62.38;101725.75;5057101;28;45393;-86
2021/06/04 11:49:54;;;;;;;;;3.67;3.67;;;;;23.34;62.05;101749.66;5072930;28;45331;-86
2021/06/04 11:52:26;;;;;;;;;5.00;5.00;;;;;23.36;61.73;101747.81;5056191;28;45452;-87
2021/06/04 11:55:17;;;;;;;;;5.33;4.00;;;;;23.30;61.78;101731.84;5058263;28;45351;-87
2021/06/04 11:57:50;;;;;;;;;4.00;3.00;;;;;23.30;61.91;101727.38;5058626;28;45824;-86
2021/06/04 12:00:25;;;;;;;;;3.67;3.67;;;;;23.39;61.13;101745.09;5072334;28;45375;-86
2021/06/04 12:03:09;;;;;;;;;4.67;4.00;;;;;23.39;61.83;101742.41;5073185;28;45422;-87
2021/06/04 12:05:39;;;;;;;;;4.33;4.33;;;;;23.36;60.50;101743.34;5057708;28;45369;-86
2021/06/04 12:08:10;;;;;;;;;5.00;5.00;;;;;23.31;60.62;101745.22;5055693;28;47619;-89
2021/06/04 12:10:53;;;;;;;;;4.00;4.00;;;;;23.25;61.52;101745.34;5072644;28;46108;-90
2021/06/04 12:13:34;;;;;;;;;6.00;5.00;;;;;23.16;61.92;101746.41;5057095;28;45385;-88